Time;durP1;ratioP1;P1;durP2;ratioP2;P2;SDS_P1;SDS_P2;PMS_P1;PMS_P2;Temp;Humidity;BMP_temperature;BMP_pressure;BME280_temperature;BME280_humidity;BME280_pressure;Samples;Min_cycle;Max_cycle;Signal;HPM_P1;HPM_P2
2021/12/28 00:00:59;;;;;;;35.60;29.33;;;;;;;;;;4909910;29;20518;-63
2021/12/28 00:03:26;;;;;;;35.00;27.55;;;;;;;;;;4908767;29;20099;-64
2021/12/28 00:05:53;;;;;;;37.03;28.30;;;;;;;;;;4904955;29;20060;-64
2021/12/28 00:08:20;;;;;;;37.78;29.80;;;;;;;;;;4911097;29;20051;-67
2021/12/28 00:10:47;;;;;;;37.47;28.42;;;;;;;;;;4913247;29;20522;-67
2021/12/28 00:13:16;;;;;;;38.38;29.45;;;;;;;;;;4911282;29;20048;-67
2021/12/28 00:18:16;;;;;;;37.92;28.88;;;;;;;;;;4907960;29;20082;-67
2021/12/28 00:20:47;;;;;;;37.20;29.58;;;;;;;;;;4909179;29;20052;-67
2021/12/28 00:23:20;;;;;;;38.90;30.48;;;;;;;;;;4908366;29;20075;-67
2021/12/28 00:25:49;;;;;;;37.50;28.80;;;;;;;;;;4907014;29;20060;-68
2021/12/28 00:28:17;;;;;;;34.95;27.85;;;;;;;;;;4906242;29;20056;-64
2021/12/28 00:30:45;;;;;;;41.17;32.78;;;;;;;;;;4897419;29;20053;-64
2021/12/28 00:33:11;;;;;;;35.15;28.13;;;;;;;;;;4909532;29;20040;-64
2021/12/28 00:35:39;;;;;;;41.40;33.05;;;;;;;;;;4909236;29;20052;-62
2021/12/28 00:38:08;;;;;;;41.72;30.25;;;;;;;;;;4906948;29;20068;-63
2021/12/28 00:40:36;;;;;;;42.08;30.92;;;;;;;;;;4902120;29;20068;-64
2021/12/28 00:43:04;;;;;;;38.10;32.72;;;;;;;;;;4907663;29;20530;-64
2021/12/28 00:45:31;;;;;;;42.75;30.15;;;;;;;;;;4903442;29;20093;-65
2021/12/28 00:47:58;;;;;;;39.42;30.15;;;;;;;;;;4901303;29;20045;-64
2021/12/28 00:50:29;;;;;;;39.70;29.33;;;;;;;;;;4909233;29;20072;-64
2021/12/28 00:52:56;;;;;;;39.15;30.08;;;;;;;;;;4906095;29;20045;-64
2021/12/28 00:55:24;;;;;;;38.42;29.30;;;;;;;;;;4909764;29;20056;-63
2021/12/28 00:57:52;;;;;;;42.05;30.30;;;;;;;;;;4904748;29;20070;-63
2021/12/28 01:00:22;;;;;;;39.85;26.15;;;;;;;;;;4906671;29;20127;-64
2021/12/28 01:02:50;;;;;;;41.35;28.52;;;;;;;;;;4905398;29;20063;-66
2021/12/28 01:05:18;;;;;;;38.10;25.98;;;;;;;;;;4911391;29;20056;-66
2021/12/28 01:07:45;;;;;;;37.78;26.05;;;;;;;;;;4908610;29;20104;-64
2021/12/28 01:10:14;;;;;;;41.30;31.25;;;;;;;;;;4900365;29;20093;-64
2021/12/28 01:12:42;;;;;;;42.72;29.92;;;;;;;;;;4928493;29;20437;-64
2021/12/28 01:15:10;;;;;;;37.20;27.52;;;;;;;;;;4915226;29;20049;-64
2021/12/28 01:17:37;;;;;;;36.88;26.13;;;;;;;;;;4912264;29;20047;-63
2021/12/28 01:20:06;;;;;;;39.00;29.25;;;;;;;;;;4911058;29;20055;-64
2021/12/28 01:22:34;;;;;;;38.03;27.17;;;;;;;;;;4906808;29;20052;-65
2021/12/28 01:25:01;;;;;;;35.33;27.42;;;;;;;;;;4912671;29;20055;-63
2021/12/28 01:27:28;;;;;;;38.80;27.40;;;;;;;;;;4915015;29;20044;-64
2021/12/28 01:29:55;;;;;;;39.20;28.17;;;;;;;;;;4908792;29;20041;-67
2021/12/28 01:32:22;;;;;;;47.30;28.00;;;;;;;;;;4907515;29;20134;-66
2021/12/28 01:34:48;;;;;;;43.80;27.33;;;;;;;;;;4908445;29;20059;-64
2021/12/28 01:37:15;;;;;;;46.28;28.77;;;;;;;;;;4912745;29;20056;-64
2021/12/28 01:39:42;;;;;;;69.55;27.33;;;;;;;;;;4908202;29;20069;-63
2021/12/28 01:42:09;;;;;;;41.95;26.15;;;;;;;;;;4902494;29;20416;-64
2021/12/28 01:44:37;;;;;;;71.70;26.98;;;;;;;;;;4910901;29;20044;-63
2021/12/28 01:47:04;;;;;;;32.38;23.35;;;;;;;;;;4913858;29;20585;-63
2021/12/28 01:49:31;;;;;;;32.67;23.55;;;;;;;;;;4911894;29;20092;-64
2021/12/28 01:51:58;;;;;;;37.53;24.35;;;;;;;;;;4907518;29;20492;-64
2021/12/28 01:54:26;;;;;;;29.75;23.17;;;;;;;;;;4909171;29;20033;-65
2021/12/28 01:56:53;;;;;;;31.15;24.98;;;;;;;;;;4911156;29;20049;-66
2021/12/28 01:59:21;;;;;;;35.17;26.60;;;;;;;;;;4913071;29;20578;-66
2021/12/28 02:01:48;;;;;;;36.35;27.33;;;;;;;;;;4907932;29;20052;-65
2021/12/28 02:04:17;;;;;;;41.33;28.08;;;;;;;;;;4905581;29;20117;-64
2021/12/28 02:06:44;;;;;;;42.17;29.88;;;;;;;;;;4909914;29;20058;-65
2021/12/28 02:09:11;;;;;;;44.13;31.45;;;;;;;;;;4912864;29;20436;-65
2021/12/28 02:11:39;;;;;;;41.45;31.73;;;;;;;;;;4913103;29;20052;-66
2021/12/28 02:14:08;;;;;;;49.15;34.70;;;;;;;;;;4910444;29;20490;-65
2021/12/28 02:16:37;;;;;;;41.03;31.17;;;;;;;;;;4905848;29;20053;-65
2021/12/28 02:19:06;;;;;;;43.38;33.40;;;;;;;;;;4916639;29;20044;-65
2021/12/28 02:21:33;;;;;;;49.20;34.95;;;;;;;;;;4918405;29;20135;-65
2021/12/28 02:24:03;;;;;;;47.30;36.65;;;;;;;;;;4917984;29;20040;-64
2021/12/28 02:26:30;;;;;;;41.45;32.97;;;;;;;;;;4918732;29;20439;-64
2021/12/28 02:28:57;;;;;;;47.15;36.58;;;;;;;;;;4918170;29;20055;-64
2021/12/28 02:31:26;;;;;;;44.60;34.50;;;;;;;;;;4918070;29;20582;-64
2021/12/28 02:33:53;;;;;;;49.88;36.42;;;;;;;;;;4917888;29;20044;-64
2021/12/28 02:36:20;;;;;;;46.28;35.70;;;;;;;;;;4918348;29;20044;-63
2021/12/28 02:38:47;;;;;;;46.17;34.60;;;;;;;;;;4918396;29;20407;-63
2021/12/28 02:41:15;;;;;;;51.90;37.75;;;;;;;;;;4918026;29;20040;-63
2021/12/28 02:43:45;;;;;;;46.85;37.45;;;;;;;;;;4918474;29;20432;-63
2021/12/28 02:46:12;;;;;;;50.55;36.78;;;;;;;;;;4918206;29;20040;-64
2021/12/28 02:48:41;;;;;;;71.88;38.95;;;;;;;;;;4918081;29;20052;-64
2021/12/28 02:51:14;;;;;;;53.00;39.03;;;;;;;;;;4917591;29;20123;-63
2021/12/28 02:53:43;;;;;;;44.53;33.42;;;;;;;;;;4917958;29;20059;-63
2021/12/28 02:56:12;;;;;;;53.50;38.25;;;;;;;;;;4917948;29;20125;-62
2021/12/28 02:58:42;;;;;;;55.65;39.00;;;;;;;;;;4918089;29;20052;-63
2021/12/28 03:01:12;;;;;;;51.58;38.42;;;;;;;;;;4917820;29;20048;-63
2021/12/28 03:03:40;;;;;;;54.92;38.72;;;;;;;;;;4917802;29;20040;-64
2021/12/28 03:06:10;;;;;;;50.22;37.30;;;;;;;;;;4909486;29;20051;-64
2021/12/28 03:08:39;;;;;;;52.53;36.75;;;;;;;;;;4908210;29;20056;-64
2021/12/28 03:11:06;;;;;;;47.60;36.45;;;;;;;;;;4917333;29;20051;-64
2021/12/28 03:13:48;;;;;;;47.08;34.13;;;;;;;;;;4917394;29;20062;-63
2021/12/28 03:16:17;;;;;;;39.53;29.67;;;;;;;;;;4917496;29;20403;-65
2021/12/28 03:18:45;;;;;;;45.40;31.65;;;;;;;;;;4917037;29;20075;-65
2021/12/28 03:21:13;;;;;;;38.28;28.88;;;;;;;;;;4917501;29;20092;-63
2021/12/28 03:23:41;;;;;;;40.58;28.33;;;;;;;;;;4917050;29;20044;-63
2021/12/28 03:26:09;;;;;;;38.65;29.70;;;;;;;;;;4917345;29;20048;-64
2021/12/28 03:28:39;;;;;;;35.70;27.23;;;;;;;;;;4916710;29;20099;-63
2021/12/28 03:31:08;;;;;;;33.92;26.27;;;;;;;;;;4917253;29;20124;-64
2021/12/28 03:33:38;;;;;;;40.50;28.58;;;;;;;;;;4916292;29;20040;-65
2021/12/28 03:36:06;;;;;;;41.10;30.75;;;;;;;;;;4903605;29;20052;-64
2021/12/28 03:38:34;;;;;;;38.50;31.67;;;;;;;;;;4917402;29;20052;-63
2021/12/28 03:41:07;;;;;;;36.08;28.88;;;;;;;;;;4917322;29;20052;-63
2021/12/28 03:43:39;;;;;;;35.28;29.30;;;;;;;;;;4917237;29;20058;-63
2021/12/28 03:46:07;;;;;;;33.75;26.55;;;;;;;;;;4917017;29;20048;-63
2021/12/28 03:48:35;;;;;;;35.20;26.33;;;;;;;;;;4917023;29;20076;-64
2021/12/28 03:51:02;;;;;;;34.50;27.30;;;;;;;;;;4917145;29;20063;-63
2021/12/28 03:53:30;;;;;;;33.40;26.85;;;;;;;;;;4916988;29;20055;-63
2021/12/28 03:55:56;;;;;;;29.02;23.55;;;;;;;;;;4916429;29;20104;-63
2021/12/28 03:58:23;;;;;;;31.60;27.08;;;;;;;;;;4917021;29;20052;-63
2021/12/28 04:00:50;;;;;;;32.80;26.08;;;;;;;;;;4916814;29;20052;-64
2021/12/28 04:03:17;;;;;;;31.45;25.70;;;;;;;;;;4916890;29;20090;-64
2021/12/28 04:05:45;;;;;;;33.50;26.70;;;;;;;;;;4916463;29;20051;-63
2021/12/28 04:08:15;;;;;;;34.17;25.52;;;;;;;;;;4917076;29;20048;-63
2021/12/28 04:11:02;;;;;;;36.45;27.70;;;;;;;;;;4916402;29;20519;-64
2021/12/28 04:13:29;;;;;;;30.13;24.30;;;;;;;;;;4916551;29;20055;-64
2021/12/28 04:15:56;;;;;;;33.22;25.67;;;;;;;;;;4916876;29;20040;-64
2021/12/28 04:18:23;;;;;;;30.98;27.05;;;;;;;;;;4916581;29;20096;-65
2021/12/28 04:20:50;;;;;;;28.95;24.27;;;;;;;;;;4916616;29;20527;-66
2021/12/28 04:23:17;;;;;;;32.33;26.23;;;;;;;;;;4916438;29;20048;-65
2021/12/28 04:25:44;;;;;;;29.85;25.75;;;;;;;;;;4916437;29;20545;-65
2021/12/28 04:28:11;;;;;;;32.92;27.98;;;;;;;;;;4916040;29;20037;-64
2021/12/28 04:30:38;;;;;;;28.88;24.60;;;;;;;;;;4916639;29;20048;-64
2021/12/28 04:33:06;;;;;;;27.20;23.85;;;;;;;;;;4916369;29;20514;-65
2021/12/28 04:35:33;;;;;;;29.17;24.48;;;;;;;;;;4916669;29;20044;-65
2021/12/28 04:38:00;;;;;;;29.60;22.63;;;;;;;;;;4916356;29;20403;-65
2021/12/28 04:40:27;;;;;;;29.40;24.00;;;;;;;;;;4915519;29;20414;-65
2021/12/28 04:42:54;;;;;;;25.95;22.15;;;;;;;;;;4903685;29;20071;-65
2021/12/28 04:45:21;;;;;;;32.38;25.17;;;;;;;;;;4915480;29;20104;-65
2021/12/28 04:47:48;;;;;;;26.50;22.50;;;;;;;;;;4920196;29;20052;-63
2021/12/28 04:50:15;;;;;;;29.35;22.88;;;;;;;;;;4919619;29;20502;-63
2021/12/28 04:52:43;;;;;;;27.60;24.13;;;;;;;;;;4920269;29;20052;-62
2021/12/28 04:55:14;;;;;;;32.60;25.70;;;;;;;;;;4920075;29;20051;-66
2021/12/28 04:57:43;;;;;;;30.98;26.65;;;;;;;;;;4920228;29;20048;-63
2021/12/28 05:00:15;;;;;;;28.98;24.95;;;;;;;;;;4919999;29;20376;-63
2021/12/28 05:02:42;;;;;;;30.17;25.02;;;;;;;;;;4907849;29;20483;-64
2021/12/28 05:05:11;;;;;;;29.25;23.73;;;;;;;;;;4919511;29;20131;-65
2021/12/28 05:07:38;;;;;;;26.27;21.70;;;;;;;;;;4920052;29;20052;-65
2021/12/28 05:10:06;;;;;;;23.25;19.65;;;;;;;;;;4919796;29;20529;-63
2021/12/28 05:12:33;;;;;;;23.98;20.52;;;;;;;;;;4919554;29;20044;-63
2021/12/28 05:15:00;;;;;;;28.80;21.60;;;;;;;;;;4919985;29;20048;-63
2021/12/28 05:17:27;;;;;;;24.15;20.10;;;;;;;;;;4919677;29;20127;-62
2021/12/28 05:19:55;;;;;;;27.77;23.40;;;;;;;;;;4919357;29;20092;-62
2021/12/28 05:22:22;;;;;;;25.45;22.00;;;;;;;;;;4919466;29;20044;-62
2021/12/28 05:24:49;;;;;;;25.98;22.52;;;;;;;;;;4919590;29;20048;-62
2021/12/28 05:27:16;;;;;;;24.30;20.60;;;;;;;;;;4919118;29;20096;-62
2021/12/28 05:29:43;;;;;;;29.17;22.90;;;;;;;;;;4919741;29;20184;-64
2021/12/28 05:32:11;;;;;;;24.33;19.98;;;;;;;;;;4919039;29;20051;-64
2021/12/28 05:34:38;;;;;;;23.30;20.35;;;;;;;;;;4919720;29;20048;-63
2021/12/28 05:37:05;;;;;;;25.05;20.77;;;;;;;;;;4919337;29;20099;-62
2021/12/28 05:39:32;;;;;;;22.75;19.38;;;;;;;;;;4918934;29;20575;-62
2021/12/28 05:41:59;;;;;;;24.50;21.25;;;;;;;;;;4919267;29;20076;-62
2021/12/28 05:44:26;;;;;;;22.90;19.20;;;;;;;;;;4918887;29;20044;-62
2021/12/28 05:46:54;;;;;;;21.38;18.13;;;;;;;;;;4919129;29;20051;-62
2021/12/28 05:49:23;;;;;;;27.38;21.00;;;;;;;;;;4918867;29;20044;-62
2021/12/28 05:51:49;;;;;;;23.50;20.80;;;;;;;;;;4919403;29;20052;-63
2021/12/28 05:54:17;;;;;;;24.08;21.45;;;;;;;;;;4918750;29;20123;-63
2021/12/28 05:56:45;;;;;;;29.70;24.33;;;;;;;;;;4918399;29;20500;-62
2021/12/28 05:59:12;;;;;;;26.40;22.05;;;;;;;;;;4918854;29;20051;-62
2021/12/28 06:01:39;;;;;;;23.98;21.27;;;;;;;;;;4918930;29;20136;-63
2021/12/28 06:04:07;;;;;;;28.65;23.33;;;;;;;;;;4918909;29;20043;-63
2021/12/28 06:06:34;;;;;;;24.48;20.23;;;;;;;;;;4918713;29;20513;-63
2021/12/28 06:09:01;;;;;;;24.92;21.15;;;;;;;;;;4918661;29;20078;-63
2021/12/28 06:11:28;;;;;;;25.70;20.15;;;;;;;;;;4918531;29;20044;-64
2021/12/28 06:13:55;;;;;;;27.75;23.25;;;;;;;;;;4918997;29;20055;-64
2021/12/28 06:16:31;;;;;;;26.77;22.08;;;;;;;;;;4918472;29;20050;-63
2021/12/28 06:18:58;;;;;;;26.15;21.05;;;;;;;;;;4918909;29;20131;-63
2021/12/28 06:21:26;;;;;;;23.90;19.92;;;;;;;;;;4918412;29;20044;-62
2021/12/28 06:23:53;;;;;;;27.33;21.80;;;;;;;;;;4918649;29;20415;-62
2021/12/28 06:26:19;;;;;;;24.05;20.15;;;;;;;;;;4917333;29;20040;-63
2021/12/28 06:28:46;;;;;;;22.30;19.90;;;;;;;;;;4918178;29;20078;-63
2021/12/28 06:31:13;;;;;;;23.65;20.90;;;;;;;;;;4918225;29;20060;-63
2021/12/28 06:33:40;;;;;;;21.05;18.77;;;;;;;;;;4918445;29;20376;-64
2021/12/28 06:36:08;;;;;;;22.63;17.90;;;;;;;;;;4918415;29;20521;-64
2021/12/28 06:38:35;;;;;;;25.40;19.23;;;;;;;;;;4918335;29;20392;-64
2021/12/28 06:41:02;;;;;;;25.60;21.27;;;;;;;;;;4906365;29;20403;-64
2021/12/28 06:43:29;;;;;;;23.83;20.02;;;;;;;;;;4918088;29;20052;-62
2021/12/28 06:45:57;;;;;;;24.17;20.50;;;;;;;;;;4918053;29;20459;-62
2021/12/28 06:48:24;;;;;;;24.55;20.40;;;;;;;;;;4917777;29;20046;-61
2021/12/28 06:50:51;;;;;;;33.05;24.75;;;;;;;;;;4917507;29;20044;-62
2021/12/28 06:53:18;;;;;;;35.08;25.88;;;;;;;;;;4917620;29;20419;-62
2021/12/28 06:55:45;;;;;;;30.75;26.27;;;;;;;;;;4917767;29;20055;-63
2021/12/28 06:58:12;;;;;;;41.92;30.40;;;;;;;;;;4910991;29;20127;-61
2021/12/28 07:00:39;;;;;;;35.72;28.23;;;;;;;;;;4916677;29;20439;-62
2021/12/28 07:03:06;;;;;;;33.55;27.50;;;;;;;;;;4914997;29;20119;-61
2021/12/28 07:05:34;;;;;;;30.00;24.05;;;;;;;;;;4914537;29;20068;-62
2021/12/28 07:08:01;;;;;;;35.00;30.35;;;;;;;;;;4910279;29;20066;-61
2021/12/28 07:10:28;;;;;;;33.33;28.45;;;;;;;;;;4901076;29;20400;-62
2021/12/28 07:12:55;;;;;;;32.00;24.95;;;;;;;;;;4912424;29;20456;-62
2021/12/28 07:15:23;;;;;;;27.48;20.92;;;;;;;;;;4914147;29;20633;-62
2021/12/28 07:17:50;;;;;;;24.15;20.48;;;;;;;;;;4912438;29;20595;-60
2021/12/28 07:20:17;;;;;;;32.72;25.30;;;;;;;;;;4915044;29;20182;-63
2021/12/28 07:22:44;;;;;;;28.90;24.27;;;;;;;;;;4914246;29;20506;-64
2021/12/28 07:25:11;;;;;;;29.38;22.10;;;;;;;;;;4909675;29;20041;-64
2021/12/28 07:27:38;;;;;;;27.40;22.48;;;;;;;;;;4912048;29;20052;-66
2021/12/28 07:30:08;;;;;;;27.92;21.67;;;;;;;;;;4909668;29;20516;-66
2021/12/28 07:32:36;;;;;;;21.85;19.50;;;;;;;;;;4901229;29;20087;-63
2021/12/28 07:35:04;;;;;;;29.05;23.00;;;;;;;;;;4907127;29;20052;-62
2021/12/28 07:37:31;;;;;;;23.50;20.88;;;;;;;;;;4908969;29;20499;-63
2021/12/28 07:39:58;;;;;;;27.83;23.42;;;;;;;;;;4907799;29;20076;-62
2021/12/28 07:42:25;;;;;;;36.92;29.42;;;;;;;;;;4902799;29;20048;-62
2021/12/28 07:44:51;;;;;;;31.38;27.40;;;;;;;;;;4906531;29;20053;-61
2021/12/28 07:47:18;;;;;;;32.65;25.10;;;;;;;;;;4912963;29;20516;-66
2021/12/28 07:49:46;;;;;;;27.48;23.73;;;;;;;;;;4908811;29;20100;-68
2021/12/28 07:52:13;;;;;;;25.30;22.05;;;;;;;;;;4908391;29;20127;-63
2021/12/28 07:54:40;;;;;;;30.58;23.98;;;;;;;;;;4913295;29;20044;-63
2021/12/28 07:57:07;;;;;;;24.45;20.55;;;;;;;;;;4912545;29;20078;-60
2021/12/28 07:59:34;;;;;;;26.30;21.15;;;;;;;;;;4914079;29;20032;-62
2021/12/28 08:02:00;;;;;;;26.08;21.10;;;;;;;;;;4912022;29;20040;-62
2021/12/28 08:04:28;;;;;;;27.40;24.42;;;;;;;;;;4914334;29;20046;-61
2021/12/28 08:06:56;;;;;;;29.50;23.60;;;;;;;;;;4913742;29;20048;-61
2021/12/28 08:09:23;;;;;;;32.10;24.63;;;;;;;;;;4911117;29;20036;-59
2021/12/28 08:11:50;;;;;;;28.20;23.13;;;;;;;;;;4912809;29;20048;-61
2021/12/28 08:14:18;;;;;;;36.80;26.48;;;;;;;;;;4915017;29;20052;-60
2021/12/28 08:16:46;;;;;;;29.60;24.17;;;;;;;;;;4913718;29;20541;-61
2021/12/28 08:19:13;;;;;;;29.45;25.63;;;;;;;;;;4915276;29;20051;-60
2021/12/28 08:21:44;;;;;;;29.00;23.83;;;;;;;;;;4915292;29;20084;-61
2021/12/28 08:24:13;;;;;;;33.53;25.40;;;;;;;;;;4916168;29;20048;-65
2021/12/28 08:26:40;;;;;;;30.33;24.98;;;;;;;;;;4914697;29;20044;-64
2021/12/28 08:29:07;;;;;;;37.30;29.15;;;;;;;;;;4916182;29;20044;-63
2021/12/28 08:31:35;;;;;;;32.88;28.45;;;;;;;;;;4915732;29;20056;-65
2021/12/28 08:34:03;;;;;;;32.78;26.27;;;;;;;;;;4915741;29;20051;-61
2021/12/28 08:36:30;;;;;;;31.48;26.23;;;;;;;;;;4914003;29;20534;-60
2021/12/28 08:38:57;;;;;;;28.33;24.35;;;;;;;;;;4913369;29;20078;-61
2021/12/28 08:41:24;;;;;;;30.58;24.90;;;;;;;;;;4912298;29;20051;-61
2021/12/28 08:43:50;;;;;;;34.13;27.27;;;;;;;;;;4913700;29;20045;-63
2021/12/28 08:46:17;;;;;;;30.65;25.27;;;;;;;;;;4913787;29;20086;-66
2021/12/28 08:48:45;;;;;;;31.35;25.33;;;;;;;;;;4912115;29;20048;-59
2021/12/28 08:51:12;;;;;;;32.17;25.50;;;;;;;;;;4913208;29;20048;-61
2021/12/28 08:53:38;;;;;;;30.65;23.75;;;;;;;;;;4913658;29;20044;-60
2021/12/28 08:56:05;;;;;;;33.22;27.33;;;;;;;;;;4914183;29;20071;-60
2021/12/28 08:58:32;;;;;;;32.47;25.50;;;;;;;;;;4913968;29;20491;-60
2021/12/28 09:01:00;;;;;;;29.90;26.65;;;;;;;;;;4914098;29;20048;-60
2021/12/28 09:03:28;;;;;;;34.00;26.88;;;;;;;;;;4913527;29;20830;-62
2021/12/28 09:05:55;;;;;;;33.05;25.88;;;;;;;;;;4913691;29;20048;-62
2021/12/28 09:08:22;;;;;;;34.55;29.20;;;;;;;;;;4912754;29;20669;-61
2021/12/28 09:10:49;;;;;;;36.72;29.27;;;;;;;;;;4912332;29;20040;-59
2021/12/28 09:13:17;;;;;;;35.40;30.35;;;;;;;;;;4913510;29;20044;-61
2021/12/28 09:15:45;;;;;;;44.30;32.83;;;;;;;;;;4913703;29;20126;-61
2021/12/28 09:18:12;;;;;;;38.53;30.02;;;;;;;;;;4914360;29;20100;-61
2021/12/28 09:20:39;;;;;;;42.08;34.65;;;;;;;;;;4914564;29;20044;-60
2021/12/28 09:23:10;;;;;;;38.92;32.75;;;;;;;;;;4915005;29;20127;-62
2021/12/28 09:25:38;;;;;;;38.97;31.42;;;;;;;;;;4916120;29;20518;-62
2021/12/28 09:28:07;;;;;;;41.75;33.55;;;;;;;;;;4915630;29;20064;-63
2021/12/28 09:30:35;;;;;;;40.10;31.05;;;;;;;;;;4916014;29;20083;-61
2021/12/28 09:33:02;;;;;;;33.65;25.73;;;;;;;;;;4918185;29;20048;-62
2021/12/28 09:35:29;;;;;;;34.97;25.65;;;;;;;;;;4919577;29;20072;-62
2021/12/28 09:37:56;;;;;;;35.60;24.35;;;;;;;;;;4919041;29;20051;-62
2021/12/28 09:40:30;;;;;;;26.33;20.23;;;;;;;;;;4919860;29;20044;-61
2021/12/28 09:42:57;;;;;;;25.33;19.13;;;;;;;;;;4919294;29;20067;-60
2021/12/28 09:45:24;;;;;;;26.67;19.42;;;;;;;;;;4919376;29;20048;-61
2021/12/28 09:47:51;;;;;;;23.60;18.48;;;;;;;;;;4919460;29;20542;-62
2021/12/28 09:50:19;;;;;;;26.13;18.88;;;;;;;;;;4918875;29;20046;-62
2021/12/28 09:52:48;;;;;;;23.38;19.13;;;;;;;;;;4919273;29;20395;-63
2021/12/28 09:55:19;;;;;;;20.83;16.02;;;;;;;;;;4919074;29;20051;-62
2021/12/28 09:57:46;;;;;;;20.92;16.95;;;;;;;;;;4918835;29;20040;-62
2021/12/28 10:00:13;;;;;;;21.88;16.38;;;;;;;;;;4918704;29;20079;-62
2021/12/28 10:03:00;;;;;;;19.00;14.02;;;;;;;;;;4919354;29;20066;-62
2021/12/28 10:05:28;;;;;;;18.75;14.73;;;;;;;;;;4918651;29;20571;-62
2021/12/28 10:07:57;;;;;;;19.15;13.52;;;;;;;;;;4949603;29;20048;-62
2021/12/28 10:10:33;;;;;;;19.15;13.98;;;;;;;;;;4918931;29;20046;-61
2021/12/28 10:13:07;;;;;;;18.60;13.13;;;;;;;;;;4919156;29;20096;-62
2021/12/28 10:15:37;;;;;;;16.98;13.20;;;;;;;;;;4918915;29;20044;-61
2021/12/28 10:18:07;;;;;;;19.33;13.27;;;;;;;;;;4918877;29;20048;-62
2021/12/28 10:20:42;;;;;;;17.98;13.80;;;;;;;;;;4918935;29;20055;-62
2021/12/28 10:23:11;;;;;;;;;;;;;;;;;;4919058;29;20048;-62
2021/12/28 10:25:40;;;;;;;16.23;13.10;;;;;;;;;;4918691;29;20286;-62
2021/12/28 10:28:13;;;;;;;14.65;12.88;;;;;;;;;;4918178;29;20048;-62
2021/12/28 10:30:49;;;;;;;13.35;11.25;;;;;;;;;;4918608;29;20067;-63
2021/12/28 10:33:23;;;;;;;17.50;13.07;;;;;;;;;;4918259;29;20079;-61
2021/12/28 10:35:54;;;;;;;17.63;13.00;;;;;;;;;;4918768;29;20044;-61
2021/12/28 10:38:24;;;;;;;14.00;11.82;;;;;;;;;;4918070;29;20487;-61
2021/12/28 10:40:56;;;;;;;12.15;10.85;;;;;;;;;;4918345;29;20044;-61
2021/12/28 10:43:28;;;;;;;14.90;11.73;;;;;;;;;;4918043;29;20052;-59
2021/12/28 10:46:00;;;;;;;12.88;11.57;;;;;;;;;;4918407;29;20404;-61
2021/12/28 10:48:31;;;;;;;11.35;9.40;;;;;;;;;;4918177;29;20055;-62
2021/12/28 10:51:05;;;;;;;13.07;11.20;;;;;;;;;;4918108;29;20054;-61
2021/12/28 10:53:43;;;;;;;14.07;11.85;;;;;;;;;;4918179;29;20109;-61
2021/12/28 10:56:11;;;;;;;12.65;10.27;;;;;;;;;;4928389;29;20040;-61
2021/12/28 10:58:43;;;;;;;12.02;9.32;;;;;;;;;;4936071;29;20048;-61
2021/12/28 11:01:13;;;;;;;12.90;9.52;;;;;;;;;;4935623;29;20048;-63
2021/12/28 11:03:47;;;;;;;10.93;9.15;;;;;;;;;;4935460;29;20075;-62
2021/12/28 11:06:38;;;;;;;9.52;8.30;;;;;;;;;;4936274;29;20052;-61
2021/12/28 11:09:06;;;;;;;11.60;10.25;;;;;;;;;;4935924;29;20127;-62
2021/12/28 11:11:34;;;;;;;10.57;8.98;;;;;;;;;;4936191;29;20050;-62
2021/12/28 11:14:04;;;;;;;10.20;8.45;;;;;;;;;;4929939;29;20044;-61
2021/12/28 11:16:33;;;;;;;11.27;9.32;;;;;;;;;;4914688;29;20576;-62
2021/12/28 11:19:02;;;;;;;9.50;7.95;;;;;;;;;;4916936;29;20123;-62
2021/12/28 11:21:42;;;;;;;7.32;6.63;;;;;;;;;;4914617;29;20059;-61
2021/12/28 11:24:13;;;;;;;9.88;8.85;;;;;;;;;;4914404;29;20067;-62
2021/12/28 11:26:45;;;;;;;9.48;8.05;;;;;;;;;;4916551;29;20047;-59
2021/12/28 11:29:23;;;;;;;12.23;7.60;;;;;;;;;;4916808;29;20067;-61
2021/12/28 11:31:54;;;;;;;8.80;7.82;;;;;;;;;;4912568;29;20051;-60
2021/12/28 11:34:27;;;;;;;10.93;8.43;;;;;;;;;;4915201;29;20119;-59
2021/12/28 11:36:57;;;;;;;8.90;7.10;;;;;;;;;;4907511;29;20496;-60
2021/12/28 11:39:40;;;;;;;8.85;7.95;;;;;;;;;;4916171;29;20404;-59
2021/12/28 11:42:09;;;;;;;10.25;9.10;;;;;;;;;;4916207;29;20154;-65
2021/12/28 11:44:36;;;;;;;7.10;6.40;;;;;;;;;;4915655;29;20041;-62
2021/12/28 11:47:05;;;;;;;9.27;7.63;;;;;;;;;;4916325;29;20048;-63
2021/12/28 11:49:32;;;;;;;8.73;7.15;;;;;;;;;;4915348;29;20047;-63
2021/12/28 11:52:04;;;;;;;10.00;8.32;;;;;;;;;;4909427;29;20091;-63
2021/12/28 11:54:33;;;;;;;8.02;7.18;;;;;;;;;;4912214;29;20040;-63
2021/12/28 11:57:13;;;;;;;11.52;9.68;;;;;;;;;;4913786;29;20036;-64
2021/12/28 11:59:40;;;;;;;8.18;7.28;;;;;;;;;;4912969;29;20044;-64
2021/12/28 12:02:11;;;;;;;7.90;6.50;;;;;;;;;;4912801;29;20252;-65
2021/12/28 12:04:42;;;;;;;10.45;9.35;;;;;;;;;;4913746;29;20063;-63
2021/12/28 12:07:14;;;;;;;11.00;9.02;;;;;;;;;;4912117;29;20054;-63
2021/12/28 12:09:49;;;;;;;7.18;6.22;;;;;;;;;;4913577;29;20040;-62
2021/12/28 12:12:26;;;;;;;8.65;6.35;;;;;;;;;;4914031;29;20049;-62
2021/12/28 12:15:01;;;;;;;8.40;6.65;;;;;;;;;;4911192;29;20056;-63
2021/12/28 12:17:30;;;;;;;6.65;5.47;;;;;;;;;;4910454;29;20059;-63
2021/12/28 12:20:00;;;;;;;7.07;6.38;;;;;;;;;;4910851;29;20048;-64
2021/12/28 12:22:31;;;;;;;8.05;6.85;;;;;;;;;;4912741;29;20048;-61
2021/12/28 12:25:01;;;;;;;8.63;6.80;;;;;;;;;;4912660;29;20044;-61
2021/12/28 12:27:53;;;;;;;7.50;6.57;;;;;;;;;;4914241;29;20396;-62
2021/12/28 12:30:20;;;;;;;8.20;7.30;;;;;;;;;;4914335;29;20067;-60
2021/12/28 12:32:57;;;;;;;9.55;7.47;;;;;;;;;;4913859;29;20040;-61
2021/12/28 12:35:38;;;;;;;7.40;6.47;;;;;;;;;;4913770;29;20048;-62
2021/12/28 12:38:14;;;;;;;7.70;6.50;;;;;;;;;;4911843;29;20123;-63
2021/12/28 12:41:08;;;;;;;6.82;6.10;;;;;;;;;;4906718;29;20131;-64
2021/12/28 12:43:35;;;;;;;7.85;7.05;;;;;;;;;;4907774;29;20052;-63
2021/12/28 12:46:03;;;;;;;10.07;7.13;;;;;;;;;;4902595;29;20048;-63
2021/12/28 12:48:52;;;;;;;9.23;8.07;;;;;;;;;;4909831;29;20040;-63
2021/12/28 12:51:22;;;;;;;12.55;11.18;;;;;;;;;;4906246;29;20129;-63
2021/12/28 12:54:01;;;;;;;17.77;15.02;;;;;;;;;;4909159;29;20055;-63
2021/12/28 12:56:34;;;;;;;16.85;14.52;;;;;;;;;;4912954;29;20043;-65
2021/12/28 12:59:07;;;;;;;18.25;15.73;;;;;;;;;;4911934;29;20055;-62
2021/12/28 13:01:40;;;;;;;21.75;16.85;;;;;;;;;;4898638;29;20370;-65
2021/12/28 13:04:27;;;;;;;21.45;16.30;;;;;;;;;;4913031;29;20041;-65
2021/12/28 13:06:58;;;;;;;21.45;16.95;;;;;;;;;;4907281;29;20052;-63
2021/12/28 13:09:29;;;;;;;21.30;14.70;;;;;;;;;;4913542;29;20526;-67
2021/12/28 13:11:58;;;;;;;19.95;15.70;;;;;;;;;;4911522;29;20070;-66
2021/12/28 13:14:25;;;;;;;20.35;16.25;;;;;;;;;;4912016;29;20040;-67
2021/12/28 13:17:05;;;;;;;22.25;17.77;;;;;;;;;;4914572;29;20056;-65
2021/12/28 13:19:34;;;;;;;21.95;18.33;;;;;;;;;;4919857;29;20574;-61
2021/12/28 13:22:05;;;;;;;25.00;20.48;;;;;;;;;;4919506;29;20051;-68
2021/12/28 13:24:33;;;;;;;22.15;19.13;;;;;;;;;;4919800;29;20052;-66
2021/12/28 13:27:04;;;;;;;28.42;21.85;;;;;;;;;;4919859;29;20052;-67
2021/12/28 13:29:40;;;;;;;26.48;20.75;;;;;;;;;;4919249;29;20377;-63
2021/12/28 13:32:17;;;;;;;25.33;22.00;;;;;;;;;;4919317;29;20063;-64
2021/12/28 13:35:00;;;;;;;31.33;23.33;;;;;;;;;;4916593;29;20396;-64
2021/12/28 13:37:34;;;;;;;31.98;24.90;;;;;;;;;;4917257;29;20059;-64
2021/12/28 13:40:05;;;;;;;31.33;26.05;;;;;;;;;;4916528;29;20044;-73
2021/12/28 13:42:32;;;;;;;32.13;26.23;;;;;;;;;;4916693;29;20044;-69
2021/12/28 13:44:59;;;;;;;36.15;27.63;;;;;;;;;;4915892;29;20048;-64
2021/12/28 13:47:26;;;;;;;36.13;28.38;;;;;;;;;;4915498;29;20233;-63
2021/12/28 13:50:09;;;;;;;33.00;25.48;;;;;;;;;;4922493;29;20083;-64
2021/12/28 13:52:57;;;;;;;29.92;24.65;;;;;;;;;;4917033;29;20526;-64
2021/12/28 13:55:25;;;;;;;30.95;26.17;;;;;;;;;;4915187;29;20051;-63
2021/12/28 13:57:52;;;;;;;32.05;25.63;;;;;;;;;;4917474;29;20108;-64
2021/12/28 14:00:23;;;;;;;36.35;26.35;;;;;;;;;;4918103;29;20055;-64
2021/12/28 14:02:59;;;;;;;35.08;27.88;;;;;;;;;;4917884;29;20056;-63
2021/12/28 14:05:28;;;;;;;30.30;23.95;;;;;;;;;;4917160;29;20111;-63
2021/12/28 14:07:56;;;;;;;33.40;26.70;;;;;;;;;;4916731;29;20040;-63
2021/12/28 14:10:29;;;;;;;33.42;27.00;;;;;;;;;;4915689;29;20047;-63
2021/12/28 14:13:20;;;;;;;32.00;26.88;;;;;;;;;;4914983;29;20501;-63
2021/12/28 14:15:49;;;;;;;30.35;25.75;;;;;;;;;;4914988;29;20044;-63
2021/12/28 14:18:26;;;;;;;33.90;25.05;;;;;;;;;;4914308;29;20064;-65
2021/12/28 14:20:54;;;;;;;29.25;24.13;;;;;;;;;;4915439;29;20048;-62
2021/12/28 14:23:28;;;;;;;28.90;23.90;;;;;;;;;;4915502;29;20040;-63
2021/12/28 14:26:09;;;;;;;29.92;24.65;;;;;;;;;;4917232;29;20044;-65
2021/12/28 14:29:06;;;;;;;28.65;23.73;;;;;;;;;;4918227;29;20048;-64
2021/12/28 14:31:35;;;;;;;29.55;24.95;;;;;;;;;;4918300;29;20060;-64
2021/12/28 14:34:02;;;;;;;29.83;24.80;;;;;;;;;;4918227;29;20044;-64
2021/12/28 14:36:35;;;;;;;27.42;22.48;;;;;;;;;;4918720;29;20471;-63